Time;durP1;ratioP1;P1;durP2;ratioP2;P2;SDS_P1;SDS_P2;PMS_P1;PMS_P2;Temp;Humidity;BMP_temperature;BMP_pressure;BME280_temperature;BME280_humidity;BME280_pressure;Samples;Min_cycle;Max_cycle;Signal;HPM_P1;HPM_P2
2022/03/17 00:01:42;;;;;;;22.80;13.70;;;10.60;99.90;;;;;;5049766;28;20055;-61
2022/03/17 00:04:08;;;;;;;20.02;13.35;;;10.60;99.90;;;;;;5041558;28;20200;-61
2022/03/17 00:06:34;;;;;;;23.23;13.00;;;10.60;99.90;;;;;;5045888;28;20044;-60
2022/03/17 00:09:01;;;;;;;21.38;14.85;;;10.60;99.90;;;;;;5038215;28;20056;-62
2022/03/17 00:11:28;;;;;;;22.25;14.13;;;10.60;99.90;;;;;;5040469;28;20148;-61
2022/03/17 00:13:54;;;;;;;22.98;14.95;;;10.60;99.90;;;;;;5048121;28;20246;-61
2022/03/17 00:16:19;;;;;;;23.40;14.13;;;10.60;99.90;;;;;;5047382;28;20698;-60
2022/03/17 00:18:45;;;;;;;26.63;15.25;;;10.60;99.90;;;;;;5043701;28;20041;-60
2022/03/17 00:21:10;;;;;;;25.80;15.98;;;10.60;99.90;;;;;;5049626;28;20082;-63
2022/03/17 00:23:36;;;;;;;23.83;15.25;;;10.50;99.90;;;;;;5043876;28;20202;-62
2022/03/17 00:26:01;;;;;;;19.80;12.90;;;10.50;99.90;;;;;;5048713;28;20068;-61
2022/03/17 00:28:27;;;;;;;23.67;15.40;;;10.60;99.90;;;;;;5043506;28;20078;-61
2022/03/17 00:30:52;;;;;;;25.73;15.02;;;10.60;99.90;;;;;;5042675;28;20804;-61
2022/03/17 00:33:18;;;;;;;22.30;13.82;;;10.60;99.90;;;;;;5039632;28;20067;-61
2022/03/17 00:35:44;;;;;;;24.35;14.23;;;10.60;99.90;;;;;;5048361;28;20054;-61
2022/03/17 00:38:16;;;;;;;22.52;13.60;;;10.60;99.90;;;;;;5025220;28;20044;-60
2022/03/17 00:40:43;;;;;;;18.67;12.95;;;10.60;99.90;;;;;;5035937;28;20049;-61
2022/03/17 00:43:11;;;;;;;22.73;13.68;;;10.50;99.90;;;;;;5041042;28;20064;-63
2022/03/17 00:45:37;;;;;;;26.05;14.50;;;10.60;99.90;;;;;;5017853;28;20163;-60
2022/03/17 00:48:03;;;;;;;28.95;15.77;;;10.60;99.90;;;;;;5054463;28;20048;-60
2022/03/17 00:50:29;;;;;;;21.20;14.63;;;10.50;99.90;;;;;;5055962;28;20047;-60
2022/03/17 00:52:55;;;;;;;21.60;14.00;;;10.50;99.90;;;;;;5055918;28;20041;-60
2022/03/17 00:55:22;;;;;;;18.30;11.82;;;10.50;99.90;;;;;;5055224;28;20109;-61
2022/03/17 00:57:48;;;;;;;22.52;13.48;;;10.50;99.90;;;;;;5055946;28;20086;-60
2022/03/17 01:00:15;;;;;;;27.40;15.80;;;10.50;99.90;;;;;;5055510;28;20781;-61
2022/03/17 01:02:45;;;;;;;21.50;14.10;;;10.50;99.90;;;;;;5034205;28;20066;-61
2022/03/17 01:05:11;;;;;;;24.67;14.95;;;10.50;99.90;;;;;;5039736;28;20440;-61
2022/03/17 01:07:37;;;;;;;22.55;15.20;;;10.50;99.90;;;;;;5054795;28;20048;-61
2022/03/17 01:10:08;;;;;;;26.42;16.02;;;10.50;99.90;;;;;;5038724;28;20090;-61
2022/03/17 01:12:34;;;;;;;22.58;14.60;;;10.50;99.90;;;;;;5056675;28;20937;-61
2022/03/17 01:15:00;;;;;;;26.95;15.57;;;10.50;99.90;;;;;;5056137;28;20045;-61
2022/03/17 01:17:26;;;;;;;22.33;13.10;;;10.50;99.90;;;;;;5057024;28;20057;-61
2022/03/17 01:19:52;;;;;;;23.48;14.85;;;10.50;99.90;;;;;;5050266;28;20090;-61
2022/03/17 01:22:17;;;;;;;23.88;14.05;;;10.50;99.90;;;;;;5055519;28;20123;-61
2022/03/17 01:24:45;;;;;;;20.10;13.35;;;10.40;99.90;;;;;;5056436;28;20744;-61
2022/03/17 01:27:11;;;;;;;19.42;14.70;;;10.40;99.90;;;;;;5049921;28;20063;-62
2022/03/17 01:29:38;;;;;;;22.70;15.40;;;10.40;99.90;;;;;;5054618;28;20044;-62
2022/03/17 01:32:04;;;;;;;24.75;15.93;;;10.40;99.90;;;;;;5055538;28;20091;-63
2022/03/17 01:34:30;;;;;;;22.77;14.93;;;10.40;99.90;;;;;;5056100;28;20124;-62
2022/03/17 01:36:58;;;;;;;24.33;14.52;;;10.40;99.90;;;;;;5055174;28;20052;-61
2022/03/17 01:39:24;;;;;;;22.13;14.73;;;10.40;99.90;;;;;;5056651;28;20040;-61
2022/03/17 01:41:50;;;;;;;25.05;15.25;;;10.40;99.90;;;;;;5056286;28;20051;-61
2022/03/17 01:44:15;;;;;;;23.50;13.63;;;10.40;99.90;;;;;;5055407;28;20870;-60
2022/03/17 01:49:27;;;;;;;25.35;15.93;;;10.40;99.90;;;;;;4994131;28;20183;-62
2022/03/17 01:51:52;;;;;;;24.02;15.70;;;10.40;99.90;;;;;;5049487;28;20574;-60
2022/03/17 01:54:19;;;;;;;21.33;16.05;;;10.40;99.90;;;;;;5034887;28;20051;-61
2022/03/17 01:56:46;;;;;;;23.08;15.05;;;10.40;99.90;;;;;;5055677;28;20191;-61
2022/03/17 01:59:12;;;;;;;24.63;14.68;;;10.50;99.90;;;;;;5054872;28;20052;-61
2022/03/17 02:01:38;;;;;;;24.13;15.55;;;10.40;99.90;;;;;;5055510;28;20036;-62
2022/03/17 02:04:05;;;;;;;22.42;13.32;;;10.50;99.90;;;;;;5055159;28;20102;-61
2022/03/17 02:06:31;;;;;;;29.13;17.00;;;10.50;99.90;;;;;;5056026;28;20079;-61
2022/03/17 02:08:57;;;;;;;20.55;13.52;;;10.50;99.90;;;;;;5055950;28;20052;-61
2022/03/17 02:14:07;;;;;;;27.83;15.68;;;10.50;99.90;;;;;;5055728;28;20102;-63
2022/03/17 02:16:33;;;;;;;23.65;13.88;;;10.50;99.90;;;;;;5055574;28;20052;-61
2022/03/17 02:18:59;;;;;;;25.75;13.63;;;10.50;99.90;;;;;;5054938;28;20049;-61
2022/03/17 02:21:25;;;;;;;21.40;14.85;;;10.50;99.90;;;;;;5055450;28;21017;-61
2022/03/17 02:26:37;;;;;;;22.45;13.93;;;10.50;99.90;;;;;;5054658;28;20051;-61
2022/03/17 02:29:03;;;;;;;22.98;15.25;;;10.50;99.90;;;;;;5054901;28;20048;-62
2022/03/17 02:31:28;;;;;;;25.85;15.73;;;10.50;99.90;;;;;;5055744;28;20043;-62
2022/03/17 02:33:54;;;;;;;20.80;13.75;;;10.50;99.90;;;;;;5054698;28;20052;-61
2022/03/17 02:36:20;;;;;;;24.70;13.48;;;10.50;99.90;;;;;;5055384;28;20054;-61
2022/03/17 02:38:45;;;;;;;30.85;16.23;;;10.50;99.90;;;;;;5055611;28;20084;-61
2022/03/17 02:41:21;;;;;;;18.75;13.85;;;10.50;99.90;;;;;;5035249;28;20067;-60
2022/03/17 02:43:50;;;;;;;28.02;15.32;;;10.50;99.90;;;;;;5055327;28;20056;-62
2022/03/17 02:46:16;;;;;;;24.02;15.15;;;10.50;99.90;;;;;;5054857;28;20080;-60
2022/03/17 02:48:42;;;;;;;25.65;16.50;;;10.50;99.90;;;;;;5055340;28;20163;-61
2022/03/17 02:51:07;;;;;;;24.35;15.50;;;10.50;99.90;;;;;;5054069;28;20766;-61
2022/03/17 02:53:33;;;;;;;24.33;15.40;;;10.50;99.90;;;;;;5054481;28;20139;-60
2022/03/17 02:55:58;;;;;;;26.25;16.42;;;10.60;99.90;;;;;;5054723;28;20671;-61
2022/03/17 02:58:24;;;;;;;21.63;14.48;;;10.60;99.90;;;;;;5054850;28;20533;-61
2022/03/17 03:00:52;;;;;;;26.30;15.65;;;10.60;99.90;;;;;;5054675;28;20041;-61
2022/03/17 03:03:18;;;;;;;23.85;15.38;;;10.70;99.90;;;;;;5055159;28;20786;-62
2022/03/17 03:05:44;;;;;;;26.90;16.35;;;10.70;99.90;;;;;;5055209;28;20036;-61
2022/03/17 03:08:10;;;;;;;24.98;14.77;;;10.70;99.90;;;;;;5054586;28;20763;-62
2022/03/17 03:10:36;;;;;;;27.50;16.38;;;10.70;99.90;;;;;;5055367;28;20130;-62
2022/03/17 03:13:02;;;;;;;21.27;14.50;;;10.70;99.90;;;;;;5055310;28;20052;-61
2022/03/17 03:15:29;;;;;;;22.08;15.65;;;10.80;99.90;;;;;;5048245;28;20052;-62
2022/03/17 03:17:55;;;;;;;23.90;15.13;;;10.80;99.90;;;;;;5054903;28;20045;-61
2022/03/17 03:20:21;;;;;;;22.50;15.98;;;10.80;99.90;;;;;;5055237;28;20087;-61
2022/03/17 03:22:47;;;;;;;23.42;14.45;;;10.80;99.90;;;;;;5054785;28;20048;-62
2022/03/17 03:25:12;;;;;;;25.85;15.98;;;10.80;99.90;;;;;;5055496;28;20147;-61
2022/03/17 03:27:43;;;;;;;22.05;15.10;;;10.90;99.90;;;;;;5055597;28;20155;-60
2022/03/17 03:30:11;;;;;;;26.25;16.25;;;10.90;99.90;;;;;;5054263;28;20070;-63
2022/03/17 03:32:47;;;;;;;25.35;16.55;;;10.90;99.90;;;;;;5050280;28;20057;-61
2022/03/17 03:37:59;;;;;;;25.42;16.52;;;10.90;99.90;;;;;;5055159;28;20106;-61
2022/03/17 03:40:25;;;;;;;24.20;15.52;;;10.90;99.90;;;;;;5054939;28;20705;-61
2022/03/17 03:42:51;;;;;;;26.35;16.85;;;11.00;99.90;;;;;;5054650;28;20070;-61
2022/03/17 03:45:17;;;;;;;21.88;15.20;;;11.00;99.90;;;;;;5054560;28;20041;-60
2022/03/17 03:47:42;;;;;;;23.50;15.40;;;11.00;99.90;;;;;;5054686;28;20704;-61
2022/03/17 03:50:09;;;;;;;26.35;16.95;;;11.00;99.90;;;;;;5054092;28;20040;-63
2022/03/17 03:52:34;;;;;;;25.45;16.67;;;11.00;99.90;;;;;;5055320;28;20050;-62
2022/03/17 03:55:00;;;;;;;29.60;16.95;;;11.10;99.90;;;;;;5055011;28;20044;-62
2022/03/17 03:57:28;;;;;;;22.75;16.63;;;10.90;99.90;;;;;;5036539;28;20048;-62
2022/03/17 03:59:55;;;;;;;28.65;15.98;;;11.10;99.90;;;;;;5054746;28;20056;-61
2022/03/17 04:02:21;;;;;;;28.75;17.95;;;11.10;99.90;;;;;;5057186;28;20056;-61
2022/03/17 04:04:46;;;;;;;21.05;14.98;;;11.10;99.90;;;;;;5057984;28;20052;-62
2022/03/17 04:07:12;;;;;;;24.58;16.63;;;11.10;99.90;;;;;;5058732;28;20061;-61
2022/03/17 04:09:41;;;;;;;25.25;15.82;;;11.20;99.90;;;;;;5059089;28;20109;-61
2022/03/17 04:12:15;;;;;;;30.13;16.80;;;11.20;99.90;;;;;;5058128;28;20102;-61
2022/03/17 04:14:41;;;;;;;22.92;17.42;;;11.20;99.90;;;;;;5058744;28;20044;-61
2022/03/17 04:17:07;;;;;;;33.88;17.85;;;11.20;99.90;;;;;;5057818;28;20051;-62
2022/03/17 04:19:32;;;;;;;23.48;17.45;;;11.20;99.90;;;;;;5057605;28;20067;-61
2022/03/17 04:21:58;;;;;;;25.38;16.75;;;11.20;99.90;;;;;;5058075;28;20084;-62
2022/03/17 04:24:23;;;;;;;23.70;15.70;;;11.10;99.90;;;;;;5043681;28;20041;-61
2022/03/17 04:26:49;;;;;;;33.78;18.45;;;11.10;99.90;;;;;;5037757;28;20041;-61
2022/03/17 04:29:15;;;;;;;27.00;18.67;;;11.00;99.90;;;;;;5032014;28;20052;-61
2022/03/17 04:31:43;;;;;;;28.15;17.35;;;11.00;99.90;;;;;;5057335;28;20041;-62
2022/03/17 04:34:09;;;;;;;31.17;19.73;;;11.00;99.90;;;;;;5057798;28;20436;-62
2022/03/17 04:36:36;;;;;;;30.98;18.30;;;10.90;99.90;;;;;;5058135;28;20056;-61
2022/03/17 04:39:03;;;;;;;29.52;19.80;;;10.90;99.90;;;;;;5057609;28;20044;-61
2022/03/17 04:41:29;;;;;;;32.83;21.42;;;10.80;99.90;;;;;;5054280;28;20037;-61
2022/03/17 04:43:55;;;;;;;29.80;18.58;;;10.80;99.90;;;;;;5037176;28;20099;-61
2022/03/17 04:46:21;;;;;;;37.72;20.30;;;10.70;99.90;;;;;;5037620;28;20045;-62
2022/03/17 04:48:46;;;;;;;30.42;21.80;;;10.60;99.90;;;;;;5037824;28;20051;-61
2022/03/17 04:51:12;;;;;;;35.47;20.45;;;10.50;99.90;;;;;;5037997;28;20053;-63
2022/03/17 04:53:37;;;;;;;38.22;21.58;;;10.40;99.90;;;;;;5036701;28;20049;-62
2022/03/17 04:56:08;;;;;;;40.53;23.35;;;10.30;99.90;;;;;;5052943;28;20044;-62
2022/03/17 04:58:36;;;;;;;33.85;22.17;;;10.20;99.90;;;;;;5057416;28;20045;-63
2022/03/17 05:01:03;;;;;;;34.60;22.92;;;10.10;99.90;;;;;;5056844;28;20052;-64
2022/03/17 05:03:29;;;;;;;36.67;24.23;;;10.10;99.90;;;;;;5057071;28;20044;-64
2022/03/17 05:05:55;;;;;;;35.55;22.35;;;10.10;99.90;;;;;;5046974;28;20041;-63
2022/03/17 05:08:22;;;;;;;35.53;22.02;;;10.00;99.90;;;;;;5036143;28;20075;-63
2022/03/17 05:10:48;;;;;;;40.13;23.20;;;10.00;99.90;;;;;;5019211;28;20055;-64
2022/03/17 05:13:16;;;;;;;39.85;26.13;;;10.00;99.90;;;;;;5040123;28;20049;-65
2022/03/17 05:15:42;;;;;;;40.35;25.48;;;10.00;99.90;;;;;;5056893;28;20086;-67
2022/03/17 05:18:08;;;;;;;43.55;26.52;;;9.90;99.90;;;;;;5039209;28;20147;-68
2022/03/17 05:20:38;;;;;;;43.65;25.17;;;9.90;99.90;;;;;;5049821;28;20045;-68
2022/03/17 05:23:04;;;;;;;40.03;24.55;;;9.90;99.90;;;;;;5050122;28;20080;-68
2022/03/17 05:25:32;;;;;;;38.40;23.95;;;9.90;99.90;;;;;;5038986;28;20496;-68
2022/03/17 05:27:59;;;;;;;38.28;26.85;;;9.90;99.90;;;;;;5056100;28;20048;-68
2022/03/17 05:30:26;;;;;;;34.17;22.05;;;9.90;99.90;;;;;;5038634;28;20051;-68
2022/03/17 05:32:52;;;;;;;32.80;17.80;;;9.90;99.90;;;;;;5057155;28;20103;-68
2022/03/17 05:35:18;;;;;;;15.07;10.20;;;9.80;99.90;;;;;;5056628;28;20033;-68
2022/03/17 05:37:44;;;;;;;8.75;6.63;;;9.70;99.90;;;;;;5056801;28;20045;-67
2022/03/17 05:40:15;;;;;;;6.30;5.10;;;9.70;99.90;;;;;;5039417;28;20155;-68
2022/03/17 05:42:45;;;;;;;7.70;4.20;;;9.50;99.90;;;;;;5056561;28;20152;-67
2022/03/17 05:45:12;;;;;;;5.70;4.40;;;9.30;99.90;;;;;;5056996;28;20054;-68
2022/03/17 05:47:39;;;;;;;5.05;3.90;;;9.30;99.90;;;;;;5056673;28;20048;-66
2022/03/17 05:50:07;;;;;;;7.43;4.35;;;9.20;99.90;;;;;;5056039;28;20033;-67
2022/03/17 05:52:38;;;;;;;6.15;5.15;;;9.20;99.90;;;;;;5038241;28;20063;-68
2022/03/17 05:55:04;;;;;;;6.93;4.93;;;9.20;99.90;;;;;;5038027;28;20052;-68
2022/03/17 05:57:30;;;;;;;8.40;5.05;;;9.10;99.90;;;;;;5055484;28;20040;-66
2022/03/17 05:59:55;;;;;;;7.63;4.88;;;9.10;99.90;;;;;;5055679;28;20045;-66
2022/03/17 06:02:22;;;;;;;7.85;5.60;;;9.10;99.90;;;;;;5055343;28;20075;-65
2022/03/17 06:04:47;;;;;;;6.07;5.45;;;9.00;99.90;;;;;;5041927;28;20052;-65
2022/03/17 06:07:13;;;;;;;9.32;6.03;;;9.00;99.90;;;;;;5035054;28;20045;-64
2022/03/17 06:09:39;;;;;;;10.80;6.88;;;8.90;99.90;;;;;;5035174;28;20129;-67
2022/03/17 06:12:06;;;;;;;14.65;8.40;;;8.90;99.90;;;;;;5034436;28;20489;-67
2022/03/17 06:14:32;;;;;;;11.13;7.80;;;8.80;99.90;;;;;;5049177;28;20045;-64
2022/03/17 06:16:58;;;;;;;11.07;7.22;;;8.80;99.90;;;;;;5055485;28;20054;-64
2022/03/17 06:19:24;;;;;;;11.68;7.82;;;8.80;99.90;;;;;;5053876;28;20067;-65
2022/03/17 06:21:50;;;;;;;9.57;7.40;;;8.80;99.90;;;;;;5054498;28;20494;-64
2022/03/17 06:24:16;;;;;;;11.48;8.55;;;8.70;99.90;;;;;;5053101;28;20079;-64
2022/03/17 06:26:41;;;;;;;15.48;8.15;;;8.80;99.90;;;;;;5052052;28;20151;-65
2022/03/17 06:29:07;;;;;;;13.57;9.13;;;8.70;99.90;;;;;;5051607;28;20044;-64
2022/03/17 06:31:32;;;;;;;12.07;7.28;;;8.70;99.90;;;;;;5052076;28;20057;-64
2022/03/17 06:33:58;;;;;;;9.48;6.13;;;8.70;99.90;;;;;;5052365;28;20111;-64
2022/03/17 06:36:26;;;;;;;13.68;6.63;;;8.70;99.90;;;;;;5052176;28;20052;-64
2022/03/17 06:38:51;;;;;;;10.77;6.90;;;8.70;99.90;;;;;;5033728;28;20068;-64
2022/03/17 06:41:17;;;;;;;13.45;6.32;;;8.70;99.90;;;;;;5052590;28;20045;-64
2022/03/17 06:43:43;;;;;;;8.98;5.63;;;8.70;99.90;;;;;;5034580;28;20641;-64
2022/03/17 06:46:08;;;;;;;12.88;6.80;;;8.60;99.90;;;;;;5032152;28;20669;-64
2022/03/17 06:48:34;;;;;;;11.23;6.53;;;8.70;99.90;;;;;;5032288;28;20155;-64
2022/03/17 06:51:00;;;;;;;8.80;5.85;;;8.70;99.90;;;;;;5014217;28;20052;-64
2022/03/17 06:53:26;;;;;;;9.98;5.07;;;8.70;99.90;;;;;;5031456;28;20146;-65
2022/03/17 06:55:52;;;;;;;9.48;5.38;;;8.60;99.90;;;;;;5046853;28;20114;-64
2022/03/17 06:58:17;;;;;;;6.80;4.30;;;8.70;99.90;;;;;;5052745;28;20052;-63
2022/03/17 07:00:43;;;;;;;9.85;4.60;;;8.60;99.90;;;;;;5051907;28;20041;-63
2022/03/17 07:03:08;;;;;;;18.77;5.07;;;8.60;99.90;;;;;;5035278;28;20060;-64
2022/03/17 07:05:34;;;;;;;8.52;5.40;;;8.60;99.90;;;;;;5051942;28;20036;-64
2022/03/17 07:07:59;;;;;;;13.60;4.60;;;8.60;99.90;;;;;;5027643;28;20045;-63
2022/03/17 07:10:27;;;;;;;9.95;3.90;;;8.60;99.90;;;;;;5033235;28;20045;-63
2022/03/17 07:12:53;;;;;;;5.18;3.50;;;8.60;99.90;;;;;;5043317;28;20737;-64
2022/03/17 07:15:20;;;;;;;9.05;4.93;;;8.60;99.90;;;;;;5034455;28;20059;-64
2022/03/17 07:17:46;;;;;;;6.95;4.03;;;8.50;99.90;;;;;;5034298;28;20103;-64
2022/03/17 07:20:14;;;;;;;6.43;3.10;;;8.60;99.90;;;;;;5035791;28;20139;-63
2022/03/17 07:22:41;;;;;;;8.55;3.22;;;8.60;99.90;;;;;;5034612;28;20052;-63
2022/03/17 07:25:07;;;;;;;6.55;3.00;;;8.60;99.90;;;;;;5036807;28;20045;-64
2022/03/17 07:27:41;;;;;;;5.18;3.10;;;8.60;99.90;;;;;;5031382;28;20059;-62
2022/03/17 07:30:11;;;;;;;5.70;2.80;;;8.60;99.90;;;;;;5050323;28;20139;-63
2022/03/17 07:32:38;;;;;;;3.78;2.70;;;8.50;99.90;;;;;;5039296;28;20053;-63
2022/03/17 07:35:05;;;;;;;7.35;3.28;;;8.50;99.90;;;;;;5031479;28;20103;-63
2022/03/17 07:37:30;;;;;;;6.90;3.55;;;8.50;99.90;;;;;;5048715;28;20114;-62
2022/03/17 07:39:56;;;;;;;6.47;3.22;;;8.50;99.90;;;;;;5038912;28;20045;-63
2022/03/17 07:42:21;;;;;;;7.50;2.47;;;8.50;99.90;;;;;;5042681;28;20040;-63
2022/03/17 07:44:47;;;;;;;4.93;3.55;;;8.50;99.90;;;;;;5039238;28;20049;-63
2022/03/17 07:47:13;;;;;;;7.25;2.85;;;8.60;99.90;;;;;;5037921;28;20080;-63
2022/03/17 07:49:39;;;;;;;7.55;2.63;;;8.20;99.90;;;;;;5038989;28;20534;-63
2022/03/17 07:52:06;;;;;;;6.78;2.30;;;8.60;99.90;;;;;;5040184;28;20143;-63
2022/03/17 07:54:32;;;;;;;6.03;2.97;;;8.50;99.90;;;;;;5034775;28;20043;-63
2022/03/17 07:56:58;;;;;;;4.07;2.80;;;8.50;99.90;;;;;;5047371;28;20048;-63
2022/03/17 07:59:24;;;;;;;4.15;2.50;;;8.50;99.90;;;;;;5037979;28;20649;-63
2022/03/17 08:01:51;;;;;;;4.55;2.42;;;8.50;99.90;;;;;;5037920;28;20120;-63
2022/03/17 08:04:17;;;;;;;6.35;3.03;;;8.50;99.90;;;;;;5042270;28;20119;-63
2022/03/17 08:06:42;;;;;;;8.80;2.53;;;8.50;99.90;;;;;;5041601;28;20807;-63
2022/03/17 08:09:08;;;;;;;10.60;2.13;;;8.50;99.90;;;;;;5044789;28;20041;-63
2022/03/17 08:11:33;;;;;;;5.07;1.58;;;8.50;99.90;;;;;;5020149;28;20051;-62
2022/03/17 08:14:07;;;;;;;5.70;2.20;;;8.50;99.90;;;;;;5034105;28;20064;-62
2022/03/17 08:16:34;;;;;;;9.68;2.42;;;8.50;99.90;;;;;;5044454;28;20037;-62
2022/03/17 08:18:59;;;;;;;9.25;1.98;;;8.50;99.90;;;;;;5039636;28;20060;-62
2022/03/17 08:21:25;;;;;;;16.95;3.72;;;8.50;99.90;;;;;;5038116;28;20040;-62
2022/03/17 08:23:50;;;;;;;5.00;2.25;;;8.50;99.90;;;;;;5045512;28;20032;-62
2022/03/17 08:26:16;;;;;;;10.77;2.70;;;8.50;99.90;;;;;;5042509;28;20044;-63
2022/03/17 08:28:42;;;;;;;4.63;2.17;;;8.50;99.90;;;;;;5039757;28;20091;-62
2022/03/17 08:31:07;;;;;;;9.07;3.40;;;8.50;99.90;;;;;;5033971;28;20041;-64
2022/03/17 08:33:34;;;;;;;22.20;3.67;;;8.50;99.90;;;;;;5041831;28;20057;-62
2022/03/17 08:36:00;;;;;;;6.40;2.15;;;8.50;99.90;;;;;;5041251;28;20053;-63
2022/03/17 08:38:25;;;;;;;9.88;2.53;;;8.60;99.90;;;;;;5041538;28;20052;-62
2022/03/17 08:40:51;;;;;;;6.30;2.20;;;8.60;99.90;;;;;;5036639;28;20385;-62
2022/03/17 08:43:16;;;;;;;7.80;2.53;;;8.70;99.90;;;;;;5045176;28;20123;-62
2022/03/17 08:51:12;;;;;;;8.98;2.65;;;8.70;99.90;;;;;;5035263;28;20069;-64
2022/03/17 08:53:38;;;;;;;4.53;2.50;;;8.70;99.90;;;;;;5033276;28;20236;-64
2022/03/17 08:56:04;;;;;;;9.68;3.15;;;8.20;99.90;;;;;;5047711;28;20830;-64
2022/03/17 08:58:30;;;;;;;7.88;2.33;;;8.70;99.90;;;;;;5033134;28;20075;-63
2022/03/17 09:00:57;;;;;;;5.75;3.35;;;8.70;99.90;;;;;;5032076;28;20045;-62
2022/03/17 09:03:24;;;;;;;7.43;2.20;;;8.70;99.90;;;;;;5045016;28;20186;-62
2022/03/17 09:05:50;;;;;;;8.45;2.40;;;8.70;99.90;;;;;;5050861;28;20040;-64
2022/03/17 09:08:15;;;;;;;8.38;2.40;;;8.70;99.90;;;;;;5043206;28;20059;-62
2022/03/17 09:10:41;;;;;;;4.50;2.35;;;8.70;99.90;;;;;;5015311;28;20060;-62
2022/03/17 09:13:11;;;;;;;5.25;2.17;;;8.60;99.90;;;;;;5033959;28;20041;-63
2022/03/17 09:15:40;;;;;;;9.23;2.75;;;8.60;99.90;;;;;;5052982;28;20049;-62
2022/03/17 09:18:10;;;;;;;14.20;3.35;;;8.60;99.90;;;;;;5050620;28;20045;-64
2022/03/17 09:20:37;;;;;;;6.63;3.22;;;8.60;99.90;;;;;;5039199;28;20135;-62
2022/03/17 09:23:03;;;;;;;4.75;2.20;;;8.70;99.90;;;;;;5045494;28;20086;-61
2022/03/17 09:25:29;;;;;;;5.85;2.25;;;8.80;99.90;;;;;;5053186;28;20048;-63
2022/03/17 09:27:55;;;;;;;14.02;2.53;;;8.80;99.90;;;;;;5052890;28;20114;-63
2022/03/17 09:30:22;;;;;;;7.05;2.70;;;8.10;99.90;;;;;;5053864;28;20041;-61
2022/03/17 09:32:48;;;;;;;8.10;3.47;;;8.90;99.90;;;;;;5053347;28;20057;-62
2022/03/17 09:35:14;;;;;;;6.45;1.92;;;9.00;99.90;;;;;;5052107;28;20056;-63
2022/03/17 09:37:41;;;;;;;9.15;2.20;;;9.00;99.90;;;;;;5052851;28;20056;-63
2022/03/17 09:40:09;;;;;;;4.32;2.13;;;9.00;99.90;;;;;;5049367;28;20045;-63
2022/03/17 09:42:36;;;;;;;7.78;2.50;;;9.10;99.90;;;;;;5052541;28;20134;-61
2022/03/17 09:45:02;;;;;;;9.35;2.63;;;9.10;99.90;;;;;;5053641;28;20131;-62
2022/03/17 09:47:32;;;;;;;7.57;2.72;;;9.00;99.90;;;;;;5053454;28;20044;-62
2022/03/17 09:50:00;;;;;;;8.35;2.80;;;9.00;99.90;;;;;;5051274;28;20118;-63
2022/03/17 09:52:26;;;;;;;6.03;2.17;;;8.90;99.90;;;;;;5053184;28;20084;-61
2022/03/17 09:54:53;;;;;;;11.07;2.67;;;8.90;99.90;;;;;;5031903;28;20033;-62
2022/03/17 09:57:19;;;;;;;15.27;3.25;;;9.00;99.90;;;;;;5050127;28;20466;-61
2022/03/17 09:59:53;;;;;;;5.00;2.53;;;9.10;99.90;;;;;;5038608;28;20337;-62
2022/03/17 10:02:20;;;;;;;5.80;2.60;;;9.20;99.90;;;;;;5020159;28;20234;-62
2022/03/17 10:04:47;;;;;;;7.20;3.05;;;9.40;99.90;;;;;;5034513;28;20147;-61
2022/03/17 10:07:14;;;;;;;4.57;1.95;;;9.50;99.90;;;;;;5052809;28;20051;-62
2022/03/17 10:09:42;;;;;;;10.23;3.03;;;9.70;99.90;;;;;;5052810;28;20048;-63
2022/03/17 10:12:13;;;;;;;5.50;3.00;;;9.80;99.90;;;;;;5053748;28;20544;-63
2022/03/17 10:14:42;;;;;;;7.45;3.10;;;9.90;99.90;;;;;;5023263;28;20048;-64
2022/03/17 10:17:36;;;;;;;10.48;2.55;;;10.00;99.90;;;;;;5034990;28;20711;-64
2022/03/17 10:20:22;;;;;;;9.82;3.53;;;10.00;99.90;;;;;;5049281;28;20123;-63
2022/03/17 10:22:55;;;;;;;3.97;2.22;;;10.00;99.90;;;;;;5037973;28;20052;-61
2022/03/17 10:25:23;;;;;;;9.98;2.50;;;10.30;99.90;;;;;;5035737;28;20079;-62
2022/03/17 10:27:49;;;;;;;6.18;1.73;;;10.40;99.90;;;;;;5053797;28;20475;-62
2022/03/17 10:30:24;;;;;;;7.70;1.98;;;11.30;99.90;;;;;;5033517;28;20056;-62
2022/03/17 10:33:00;;;;;;;39.13;6.57;;;12.20;99.90;;;;;;5033912;28;20571;-62
2022/03/17 10:35:34;;;;;;;5.05;2.08;;;12.60;99.90;;;;;;5036367;28;20063;-63
2022/03/17 10:38:09;;;;;;;;;;;12.30;99.90;;;;;;5033820;28;20044;-64
2022/03/17 10:40:35;;;;;;;7.70;1.90;;;12.50;99.80;;;;;;5052751;28;20165;-62
2022/03/17 10:43:17;;;;;;;3.72;1.85;;;14.00;99.60;;;;;;5037869;28;20842;-64
2022/03/17 10:45:44;;;;;;;8.63;1.90;;;14.30;98.30;;;;;;5033783;28;20063;-61
2022/03/17 10:48:10;;;;;;;4.80;2.22;;;14.00;98.90;;;;;;5034184;28;20045;-63
2022/03/17 10:50:43;;;;;;;5.07;2.22;;;13.40;97.80;;;;;;5033691;28;20041;-61
2022/03/17 10:53:10;;;;;;;6.30;2.38;;;12.90;98.40;;;;;;5046670;28;20052;-61
2022/03/17 10:55:37;;;;;;;2.83;1.60;;;12.50;99.90;;;;;;5046207;28;20052;-61
2022/03/17 10:58:17;;;;;;;2.75;1.80;;;12.30;99.60;;;;;;5034663;28;20052;-61
2022/03/17 11:00:48;;;;;;;3.33;1.88;;;12.10;99.70;;;;;;5032524;28;20060;-61
2022/03/17 11:03:14;;;;;;;4.07;2.40;;;11.80;99.40;;;;;;5031991;28;20052;-62
2022/03/17 11:05:40;;;;;;;6.60;1.77;;;11.70;99.90;;;;;;5035609;28;20056;-61
2022/03/17 11:08:09;;;;;;;5.47;2.72;;;11.60;99.90;;;;;;5052810;28;20051;-62
2022/03/17 11:10:35;;;;;;;5.75;1.92;;;11.60;99.90;;;;;;5052292;28;20625;-61
2022/03/17 11:13:06;;;;;;;9.07;3.20;;;11.70;99.90;;;;;;5055446;28;20059;-61
2022/03/17 11:15:34;;;;;;;4.10;1.83;;;11.80;99.90;;;;;;5043632;28;20053;-62
2022/03/17 11:18:05;;;;;;;8.30;2.05;;;11.70;99.90;;;;;;5036252;28;20056;-61
2022/03/17 11:20:31;;;;;;;5.75;2.92;;;11.50;99.30;;;;;;5035754;28;20107;-62
2022/03/17 11:23:35;;;;;;;5.88;2.03;;;11.50;99.90;;;;;;5041646;28;20921;-60
2022/03/17 11:26:00;;;;;;;4.05;2.13;;;11.50;99.90;;;;;;5056486;28;20052;-61
2022/03/17 11:28:32;;;;;;;4.32;2.05;;;11.40;99.90;;;;;;5055255;28;20043;-60
2022/03/17 11:31:07;;;;;;;6.32;2.38;;;11.50;99.90;;;;;;5055304;28;20080;-61
2022/03/17 11:33:37;;;;;;;5.97;1.90;;;11.70;99.90;;;;;;5036689;28;20095;-61
2022/03/17 11:36:08;;;;;;;10.00;2.65;;;11.70;99.90;;;;;;5054103;28;20044;-61
2022/03/17 11:38:39;;;;;;;4.07;2.50;;;11.60;99.90;;;;;;5054519;28;20048;-62
2022/03/17 11:41:14;;;;;;;5.95;2.28;;;11.50;99.90;;;;;;5053790;28;20044;-62
2022/03/17 11:43:46;;;;;;;7.97;3.05;;;11.50;99.90;;;;;;5034740;28;20160;-62
2022/03/17 11:46:35;;;;;;;9.70;3.25;;;11.40;99.50;;;;;;5035032;28;20075;-62
2022/03/17 11:49:23;;;;;;;8.57;2.35;;;11.30;99.90;;;;;;5034198;28;20048;-61
2022/03/17 11:52:03;;;;;;;6.13;2.50;;;11.40;99.90;;;;;;5017886;28;20048;-62
2022/03/17 11:54:30;;;;;;;7.53;3.03;;;11.50;99.60;;;;;;5038471;28;20971;-61
2022/03/17 11:57:07;;;;;;;6.18;2.20;;;11.60;98.80;;;;;;5054953;28;20097;-61
2022/03/17 11:59:55;;;;;;;8.27;2.75;;;11.90;99.90;;;;;;5029668;28;20057;-61
2022/03/17 12:02:34;;;;;;;6.93;2.40;;;11.90;98.80;;;;;;5037377;28;20049;-61
2022/03/17 12:05:13;;;;;;;10.18;2.28;;;11.90;99.30;;;;;;5035147;28;20565;-61
2022/03/17 12:07:46;;;;;;;5.90;2.38;;;11.80;98.90;;;;;;5040989;28;20668;-61
2022/03/17 12:10:12;;;;;;;4.93;2.17;;;11.70;96.90;;;;;;5036350;28;20615;-61
2022/03/17 12:12:40;;;;;;;8.60;2.80;;;11.70;98.70;;;;;;5035277;28;20530;-62
2022/03/17 12:15:06;;;;;;;12.50;3.30;;;11.80;99.20;;;;;;5054411;28;20051;-61
2022/03/17 12:17:32;;;;;;;5.55;2.72;;;11.80;98.30;;;;;;5037216;28;20131;-61
2022/03/17 12:20:07;;;;;;;6.32;1.63;;;11.80;97.10;;;;;;5054667;28;20570;-61
2022/03/17 12:22:39;;;;;;;6.20;2.53;;;11.80;97.60;;;;;;5053339;28;20044;-61
2022/03/17 12:25:14;;;;;;;7.20;2.42;;;11.90;98.60;;;;;;5052478;28;20040;-62
2022/03/17 12:27:40;;;;;;;10.75;2.08;;;12.10;99.00;;;;;;5044516;28;20085;-60
2022/03/17 12:30:07;;;;;;;5.72;2.78;;;12.20;98.60;;;;;;5020280;28;20043;-62
2022/03/17 12:32:44;;;;;;;8.35;3.00;;;12.10;97.20;;;;;;5044185;28;20092;-60
2022/03/17 12:35:11;;;;;;;6.90;3.10;;;12.10;97.60;;;;;;5042754;28;20083;-61
2022/03/17 12:37:38;;;;;;;6.10;2.15;;;12.20;98.70;;;;;;5022875;28;20579;-61
2022/03/17 12:40:11;;;;;;;4.50;2.08;;;12.10;97.90;;;;;;5041841;28;20121;-62
2022/03/17 12:42:42;;;;;;;6.18;2.30;;;12.00;96.30;;;;;;5040781;28;20565;-62
2022/03/17 12:45:13;;;;;;;6.00;2.30;;;11.90;97.30;;;;;;5034490;28;20535;-61
2022/03/17 12:47:40;;;;;;;8.57;2.47;;;11.80;96.50;;;;;;5018509;28;20049;-62
2022/03/17 12:50:09;;;;;;;8.38;2.95;;;11.70;97.70;;;;;;5034660;28;20067;-62
2022/03/17 12:52:36;;;;;;;4.72;1.83;;;11.80;97.90;;;;;;5034147;28;20095;-62
2022/03/17 12:55:05;;;;;;;3.75;2.08;;;11.90;97.30;;;;;;5042267;28;20052;-62
2022/03/17 12:57:33;;;;;;;6.22;1.90;;;12.00;97.50;;;;;;5039547;28;20073;-61
2022/03/17 12:59:59;;;;;;;2.80;1.70;;;12.00;96.70;;;;;;5039725;28;20052;-63